Terminal Aerodrome Forecast
Issued by NWS

Home | Current Version | Previous Version | Text Only | Print | Product List | Glossary Off
Versions: 1 2 3 4 5 6 7 8 9 10 11 12 13 14 15

000
FTUS43 KICT 270540
TAFHUT
TAF
KHUT 270540Z 2706/2806 31008KT P6SM SCT015 BKN025
      TEMPO 2706/2707 BKN015
     FM270800 33010KT P6SM SCT025
     FM271400 36010KT P6SM SKC
     FM280000 VRB05KT P6SM SKC=

USA.gov is the U.S. government's official web portal to all federal, state and local government web resources and services.